createdAt,value
2023-01-06T00:01:20.311Z,46.9
2023-01-06T00:06:12.146Z,46.9
2023-01-06T00:11:36.050Z,46.9
2023-01-06T00:16:43.739Z,46.8
2023-01-06T00:21:50.254Z,46.8
2023-01-06T00:26:43.168Z,46.8
2023-01-06T00:31:50.682Z,46.8
2023-01-06T00:36:58.066Z,46.8
2023-01-06T00:41:51.236Z,46.6
2023-01-06T00:46:42.949Z,46.6
2023-01-06T00:51:58.928Z,46.6
2023-01-06T00:57:06.672Z,46.6
2023-01-06T01:02:14.466Z,46.6
2023-01-06T01:07:21.712Z,46.5
2023-01-06T01:12:28.821Z,46.5
2023-01-06T01:17:21.241Z,46.4
2023-01-06T01:22:28.068Z,46.4
2023-01-06T01:27:51.628Z,46.4
2023-01-06T01:32:59.208Z,46.4
2023-01-06T01:38:07.106Z,46.3
2023-01-06T01:43:14.085Z,46.3
2023-01-06T01:48:06.043Z,46.3
2023-01-06T01:53:12.755Z,46.3
2023-01-06T01:58:20.642Z,46.2
2023-01-06T02:03:29.634Z,46.1
2023-01-06T02:08:37.192Z,46.1
2023-01-06T02:13:44.522Z,46.1
2023-01-06T02:18:36.744Z,46.1
2023-01-06T02:23:43.947Z,46.1
2023-01-06T02:28:52.084Z,46.4
2023-01-06T02:33:59.054Z,47.4
2023-01-06T02:39:22.013Z,48.8
2023-01-06T02:44:14.277Z,50.3
2023-01-06T02:49:22.443Z,51.8
2023-01-06T02:54:30.282Z,53.3
2023-01-06T02:59:21.746Z,54.6
2023-01-06T03:04:46.523Z,56.1
2023-01-06T03:14:45.133Z,59.2
2023-01-06T03:19:53.524Z,59.6
2023-01-06T03:25:01.178Z,59.6
2023-01-06T03:29:52.900Z,59.6
2023-01-06T03:34:42.922Z,59.6
2023-01-06T03:39:51.040Z,59.6
2023-01-06T03:44:54.464Z,59.5
2023-01-06T03:50:17.221Z,59.4
2023-01-06T03:55:24.985Z,59.4
2023-01-06T04:00:17.198Z,59.4
2023-01-06T04:04:53.906Z,59.3
2023-01-06T04:10:16.229Z,59.3
2023-01-06T04:15:08.601Z,59.3
2023-01-06T04:20:16.316Z,59.2
2023-01-06T04:25:23.121Z,59.2
2023-01-06T04:30:31.030Z,59.1
2023-01-06T04:35:39.356Z,59.1
2023-01-06T04:41:04.179Z,59.1
2023-01-06T04:46:27.640Z,59
2023-01-06T04:51:50.508Z,58.9
2023-01-06T04:57:16.381Z,58.9
2023-01-06T05:02:40.455Z,58.9
2023-01-06T05:07:57.294Z,58.8
2023-01-06T05:13:19.363Z,58.8
2023-01-06T05:18:27.081Z,58.8
2023-01-06T05:23:19.588Z,58.7
2023-01-06T05:28:10.133Z,58.6
2023-01-06T05:33:17.112Z,58.6
2023-01-06T05:43:01.339Z,58.5
2023-01-06T05:48:07.896Z,58.4
2023-01-06T05:53:16.552Z,58.4
2023-01-06T05:58:24.663Z,58.4
2023-01-06T06:03:47.861Z,58.3
2023-01-06T06:09:11.307Z,58.3
2023-01-06T06:14:19.492Z,58.3
2023-01-06T06:19:41.522Z,58.2
2023-01-06T06:24:49.013Z,58.1
2023-01-06T06:30:12.374Z,58.1
2023-01-06T06:35:34.604Z,58.1
2023-01-06T06:40:57.867Z,58
2023-01-06T06:46:21.814Z,57.9
2023-01-06T06:51:44.367Z,57.9
2023-01-06T06:57:08.007Z,57.8
2023-01-06T07:02:32.665Z,57.8
2023-01-06T07:17:57.277Z,57.7
2023-01-06T07:23:20.882Z,57.6
2023-01-06T07:28:44.363Z,57.6
2023-01-06T07:34:08.199Z,57.6
2023-01-06T07:39:31.279Z,57.5
2023-01-06T07:44:55.199Z,57.5
2023-01-06T07:50:19.793Z,57.4
2023-01-06T07:55:44.175Z,57.4
2023-01-06T08:00:52.238Z,57.3
2023-01-06T08:06:17.350Z,57.3
2023-01-06T08:11:40.656Z,57.3
2023-01-06T08:17:04.752Z,57.2
2023-01-06T08:22:13.063Z,57.2
2023-01-06T08:27:36.471Z,57.1
2023-01-06T08:33:08.374Z,57.1
2023-01-06T08:38:32.564Z,57
2023-01-06T08:43:55.373Z,57
2023-01-06T08:49:19.194Z,56.9
2023-01-06T08:54:29.229Z,56.9
2023-01-06T08:59:35.778Z,56.9
2023-01-06T09:05:00.087Z,56.8
2023-01-06T09:10:09.119Z,56.8
2023-01-06T09:15:34.103Z,56.8
2023-01-06T09:20:58.202Z,56.7
2023-01-06T09:26:22.704Z,56.8
2023-01-06T09:31:30.264Z,56.8
2023-01-06T09:36:54.712Z,56.8
2023-01-06T09:42:18.609Z,56.8
2023-01-06T09:47:42.569Z,57.2
2023-01-06T09:52:50.479Z,57.4
2023-01-06T09:57:59.053Z,57.5
2023-01-06T10:03:22.929Z,57.7
2023-01-06T10:08:47.358Z,58.4
2023-01-06T10:13:55.903Z,58.6
2023-01-06T10:19:19.628Z,59
2023-01-06T10:24:43.703Z,59.3
2023-01-06T10:30:08.084Z,59.6
2023-01-06T10:35:35.206Z,59.6
2023-01-06T10:41:01.645Z,59.7
2023-01-06T10:46:26.372Z,60.1
2023-01-06T10:51:34.225Z,60.2
2023-01-06T10:56:42.869Z,60.2
2023-01-06T11:01:52.287Z,60.1
2023-01-06T11:07:36.590Z,60.1
2023-01-06T11:13:08.731Z,60.1
2023-01-06T11:18:32.936Z,60.1
2023-01-06T11:23:42.548Z,60.1
2023-01-06T11:29:06.678Z,60
2023-01-06T11:34:30.554Z,60.1
2023-01-06T11:39:38.596Z,60.1
2023-01-06T11:45:15.549Z,60.1
2023-01-06T11:50:41.181Z,60.1
2023-01-06T11:56:04.566Z,60.1
2023-01-06T12:01:28.733Z,60.4
2023-01-06T12:06:52.998Z,60.4
2023-01-06T12:12:16.111Z,60.4
2023-01-06T12:18:07.051Z,60.4
2023-01-06T12:23:15.338Z,60.4
2023-01-06T12:28:38.708Z,60.3
2023-01-06T12:34:02.722Z,60.3
2023-01-06T12:39:11.372Z,60.3
2023-01-06T12:44:34.769Z,60.3
2023-01-06T12:50:04.471Z,60.2
2023-01-06T12:55:38.586Z,60.1
2023-01-06T13:00:46.111Z,60.1
2023-01-06T13:06:10.448Z,60.1
2023-01-06T13:11:33.826Z,60
2023-01-06T13:16:57.516Z,59.9
2023-01-06T13:22:23.831Z,59.9
2023-01-06T13:27:47.398Z,59.9
2023-01-06T13:32:39.719Z,59.9
2023-01-06T13:38:03.247Z,59.8
2023-01-06T13:43:26.988Z,59.8
2023-01-06T13:48:50.642Z,59.8
2023-01-06T13:53:43.464Z,59.7
2023-01-06T13:59:07.729Z,59.6
2023-01-06T14:04:16.928Z,59.6
2023-01-06T14:09:25.106Z,59.6
2023-01-06T14:14:49.473Z,59.5
2023-01-06T14:19:57.452Z,59.4
2023-01-06T14:25:21.615Z,59.4
2023-01-06T14:30:46.960Z,59.4
2023-01-06T14:36:09.759Z,59.3
2023-01-06T14:41:33.388Z,59.3
2023-01-06T14:46:42.208Z,59.3
2023-01-06T14:52:11.322Z,59.3
2023-01-06T14:57:19.577Z,59.1
2023-01-06T15:02:28.466Z,59.1
2023-01-06T15:07:35.084Z,59.1
2023-01-06T15:13:09.113Z,59.1
2023-01-06T15:18:17.642Z,59
2023-01-06T15:23:40.032Z,58.9
2023-01-06T15:28:32.660Z,58.9
2023-01-06T15:33:41.379Z,58.9
2023-01-06T15:39:04.871Z,58.8
2023-01-06T15:44:29.297Z,58.8
2023-01-06T15:49:52.966Z,58.8
2023-01-06T15:54:59.787Z,58.7
2023-01-06T16:00:27.078Z,58.6
2023-01-06T16:19:55.255Z,58.5
2023-01-06T16:25:19.021Z,58.4
2023-01-06T16:30:26.082Z,58.4
2023-01-06T16:35:33.929Z,58.4
2023-01-06T16:40:41.608Z,58.3
2023-01-06T16:46:04.625Z,58.3
2023-01-06T16:50:57.373Z,58.2
2023-01-06T16:56:21.637Z,58.2
2023-01-06T17:01:29.722Z,58.1
2023-01-06T17:06:38.723Z,58.1
2023-01-06T17:12:02.235Z,58.1
2023-01-06T17:17:25.401Z,58
2023-01-06T17:22:33.896Z,57.9
2023-01-06T17:27:57.601Z,57.9
2023-01-06T17:33:05.377Z,57.9
2023-01-06T17:38:13.498Z,57.8
2023-01-06T17:48:28.570Z,57.7
2023-01-06T17:53:51.296Z,57.7
2023-01-06T17:58:43.413Z,57.6
2023-01-06T18:04:06.394Z,57.6
2023-01-06T18:09:14.375Z,57.6
2023-01-06T18:14:38.181Z,57.5
2023-01-06T18:19:46.432Z,57.4
2023-01-06T18:24:55.937Z,57.4
2023-01-06T18:30:19.711Z,57.4
2023-01-06T18:35:27.354Z,57.3
2023-01-06T18:40:35.822Z,57.3
2023-01-06T18:45:44.796Z,57.3
2023-01-06T18:50:52.416Z,57.2
2023-01-06T18:55:45.018Z,57.1
2023-01-06T19:00:37.422Z,57.1
2023-01-06T19:05:45.217Z,57.1
2023-01-06T19:11:11.226Z,57
2023-01-06T19:16:35.220Z,57
2023-01-06T19:21:43.445Z,56.9
2023-01-06T19:31:50.878Z,56.8
2023-01-06T19:37:05.067Z,56.8
2023-01-06T19:42:15.549Z,56.8
2023-01-06T19:47:43.343Z,56.8
2023-01-06T19:52:52.822Z,56.7
2023-01-06T19:58:04.038Z,56.6
2023-01-06T20:03:18.192Z,56.6
2023-01-06T20:08:27.937Z,56.6
2023-01-06T20:13:36.603Z,56.5
2023-01-06T20:19:02.898Z,56.5
2023-01-06T20:23:59.114Z,56.4
2023-01-06T20:29:28.124Z,56.4
2023-01-06T20:34:09.336Z,56.3
2023-01-06T20:39:35.453Z,56.3
2023-01-06T20:45:00.705Z,56.3
2023-01-06T20:50:08.879Z,56.2
2023-01-06T20:55:31.413Z,56.2
2023-01-06T21:00:39.768Z,56.1
2023-01-06T21:05:49.664Z,56.1
2023-01-06T21:10:57.332Z,56.1
2023-01-06T21:16:05.285Z,56
2023-01-06T21:20:57.759Z,55.9
2023-01-06T21:26:20.609Z,55.9
2023-01-06T21:31:44.800Z,55.9
2023-01-06T21:36:52.031Z,55.8
2023-01-06T21:41:43.694Z,55.8
2023-01-06T21:46:38.247Z,55.8
2023-01-06T21:52:00.837Z,55.7
2023-01-06T21:57:08.525Z,55.7
2023-01-06T22:02:16.657Z,55.6
2023-01-06T22:07:39.606Z,55.6
2023-01-06T22:12:47.582Z,55.6
2023-01-06T22:18:10.955Z,55.5
2023-01-06T22:23:17.749Z,55.5
2023-01-06T22:28:10.601Z,55.4
2023-01-06T22:33:34.366Z,55.4
2023-01-06T22:38:41.820Z,55.3
2023-01-06T22:44:05.235Z,55.3
2023-01-06T22:49:13.494Z,55.3
2023-01-06T22:54:20.292Z,55.3
2023-01-06T22:59:12.995Z,55.2
2023-01-06T23:04:38.044Z,55.1
2023-01-06T23:09:40.846Z,55.1
2023-01-06T23:14:33.018Z,55.1
2023-01-06T23:19:56.520Z,55
2023-01-06T23:25:06.682Z,55
2023-01-06T23:30:30.152Z,54.9
2023-01-06T23:35:22.251Z,54.9
2023-01-06T23:40:45.161Z,54.9
2023-01-06T23:46:02.738Z,54.8
2023-01-06T23:50:55.169Z,54.8
2023-01-06T23:56:18.243Z,54.8
